createdAt,value
2023-02-08T00:00:21.449Z,103478.59
2023-02-08T00:02:53.733Z,103471.69
2023-02-08T00:05:23.387Z,103479.53
2023-02-08T00:07:53.028Z,103488.09
2023-02-08T00:10:22.958Z,103461.44
2023-02-08T00:12:52.854Z,103447.69
2023-02-08T00:15:22.699Z,103441.44
2023-02-08T00:17:54.999Z,103433.81
2023-02-08T00:20:24.646Z,103468.06
2023-02-08T00:22:54.296Z,103471.34
2023-02-08T00:25:23.895Z,103474.00
2023-02-08T00:27:53.576Z,103453.28
2023-02-08T00:30:23.748Z,103464.88
2023-02-08T00:32:56.050Z,103467.34
2023-02-08T00:35:25.715Z,103441.34
2023-02-08T00:37:55.569Z,103443.13
2023-02-08T00:40:25.231Z,103449.72
2023-02-08T00:42:55.080Z,103460.97
2023-02-08T00:45:24.670Z,103452.06
2023-02-08T00:47:57.031Z,103458.97
2023-02-08T00:50:26.666Z,103450.94
2023-02-08T00:52:56.288Z,103443.47
2023-02-08T00:55:25.960Z,103446.72
2023-02-08T00:57:55.794Z,103435.13
2023-02-08T01:00:25.658Z,103423.50
2023-02-08T01:02:57.875Z,103431.03
2023-02-08T01:05:27.485Z,103420.31
2023-02-08T01:07:58.125Z,103439.06
2023-02-08T01:10:27.756Z,103448.91
2023-02-08T01:12:57.424Z,103445.00
2023-02-08T01:15:27.141Z,103437.84
2023-02-08T01:18:01.179Z,103427.84
2023-02-08T01:20:30.820Z,103427.50
2023-02-08T01:23:00.410Z,103421.13
2023-02-08T01:25:30.115Z,103391.66
2023-02-08T01:27:59.793Z,103425.00
2023-02-08T01:30:29.525Z,103408.75
2023-02-08T01:33:01.773Z,103416.94
2023-02-08T01:35:31.386Z,103413.78
2023-02-08T01:38:01.279Z,103390.94
2023-02-08T01:40:31.289Z,103414.28
2023-02-08T01:43:00.910Z,103412.19
2023-02-08T01:45:33.574Z,103423.22
2023-02-08T01:48:12.590Z,103399.16
2023-02-08T01:50:48.296Z,103413.59
2023-02-08T01:53:17.951Z,103410.09
2023-02-08T01:55:53.004Z,103406.88
2023-02-08T01:58:24.381Z,103402.59
2023-02-08T02:00:54.239Z,103339.41
2023-02-08T02:03:27.964Z,103354.72
2023-02-08T02:06:04.258Z,103407.47
2023-02-08T02:08:34.585Z,103344.72
2023-02-08T02:11:04.334Z,103399.47
2023-02-08T02:13:35.052Z,103396.75
2023-02-08T02:16:04.746Z,103386.44
2023-02-08T02:18:37.287Z,103401.41
2023-02-08T02:21:19.403Z,103368.97
2023-02-08T02:24:13.301Z,103412.13
2023-02-08T02:27:13.918Z,103409.69
2023-02-08T02:30:08.764Z,103383.66
2023-02-08T02:32:58.045Z,103398.41
2023-02-08T02:35:35.790Z,103409.69
2023-02-08T02:38:14.369Z,103381.34
2023-02-08T02:40:54.114Z,103371.75
2023-02-08T02:43:42.154Z,103399.25
2023-02-08T02:46:24.692Z,103407.25
2023-02-08T02:49:05.656Z,103383.59
2023-02-08T02:51:43.958Z,103389.00
2023-02-08T02:54:19.584Z,103389.69
2023-02-08T02:56:53.527Z,103393.09
2023-02-08T02:59:25.277Z,103405.59
2023-02-08T03:01:57.725Z,103421.31
2023-02-08T03:04:55.627Z,103384.22
2023-02-08T03:07:50.735Z,103414.72
2023-02-08T03:10:36.337Z,103392.72
2023-02-08T03:13:16.111Z,103312.63
2023-02-08T03:15:55.406Z,103364.69
2023-02-08T03:18:37.097Z,103399.81
2023-02-08T03:21:15.192Z,103385.22
2023-02-08T03:23:55.406Z,103396.31
2023-02-08T03:26:34.278Z,103395.22
2023-02-08T03:29:11.207Z,103399.84
2023-02-08T03:31:45.098Z,103381.97
2023-02-08T03:34:19.550Z,103405.50
2023-02-08T03:36:55.421Z,103390.84
2023-02-08T03:39:29.390Z,103393.91
2023-02-08T03:42:02.560Z,103396.97
2023-02-08T03:44:36.718Z,103364.13
2023-02-08T03:47:12.367Z,103404.25
2023-02-08T03:49:42.244Z,103390.91
2023-02-08T03:52:14.722Z,103392.66
2023-02-08T03:54:49.072Z,103393.75
2023-02-08T03:57:24.041Z,103359.31
2023-02-08T03:59:59.367Z,103401.44
2023-02-08T04:02:32.623Z,103398.56
2023-02-08T04:05:03.533Z,103404.66
2023-02-08T04:07:35.803Z,103410.03
2023-02-08T04:10:05.656Z,103387.59
2023-02-08T04:12:35.328Z,103408.44
2023-02-08T04:15:04.955Z,103411.69
2023-02-08T04:17:35.037Z,103416.50
2023-02-08T04:20:04.634Z,103416.16
2023-02-08T04:22:36.832Z,103407.63
2023-02-08T04:25:08.263Z,103417.09
2023-02-08T04:27:38.105Z,103422.63
2023-02-08T04:30:08.601Z,103425.47
2023-02-08T04:32:38.245Z,103416.91
2023-02-08T04:35:09.075Z,103411.38
2023-02-08T04:37:41.370Z,103401.75
2023-02-08T04:40:12.623Z,103333.56
2023-02-08T04:42:42.292Z,103372.50
2023-02-08T04:45:12.688Z,103394.97
2023-02-08T04:47:42.305Z,103412.41
2023-02-08T04:50:12.486Z,103420.63
2023-02-08T04:52:44.679Z,103408.09
2023-02-08T04:55:14.271Z,103416.16
2023-02-08T04:57:43.952Z,103417.41
2023-02-08T05:00:15.513Z,103416.31
2023-02-08T05:02:45.132Z,103402.44
2023-02-08T05:05:14.800Z,103422.78
2023-02-08T05:07:46.995Z,103387.47
2023-02-08T05:10:16.813Z,103337.13
2023-02-08T05:12:46.590Z,103396.38
2023-02-08T05:15:16.271Z,103411.19
2023-02-08T05:17:46.098Z,103404.94
2023-02-08T05:20:16.004Z,103336.41
2023-02-08T05:22:48.235Z,103341.78
2023-02-08T05:25:18.118Z,103403.00
2023-02-08T05:27:47.901Z,103435.09
2023-02-08T05:30:17.531Z,103432.63
2023-02-08T05:32:47.163Z,103429.03
2023-02-08T05:35:16.796Z,103430.47
2023-02-08T05:37:49.187Z,103403.16
2023-02-08T05:40:18.953Z,103436.34
2023-02-08T05:42:48.591Z,103390.16
2023-02-08T05:45:18.443Z,103414.94
2023-02-08T05:47:48.787Z,103424.22
2023-02-08T05:50:18.429Z,103431.16
2023-02-08T05:52:50.615Z,103425.66
2023-02-08T05:55:20.354Z,103434.03
2023-02-08T05:57:49.992Z,103433.50
2023-02-08T06:00:20.215Z,103430.28
2023-02-08T06:02:50.012Z,103433.34
2023-02-08T06:05:19.774Z,103421.53
2023-02-08T06:07:51.966Z,103436.72
2023-02-08T06:10:21.790Z,103408.16
2023-02-08T06:12:51.400Z,103425.31
2023-02-08T06:15:21.235Z,103411.91
2023-02-08T06:17:50.822Z,103422.97
2023-02-08T06:20:20.738Z,103370.69
2023-02-08T06:22:52.973Z,103401.94
2023-02-08T06:25:22.567Z,103378.16
2023-02-08T06:27:52.267Z,103431.38
2023-02-08T06:30:21.948Z,103408.88
2023-02-08T06:32:51.612Z,103419.22
2023-02-08T06:35:21.269Z,103405.50
2023-02-08T06:37:53.458Z,103378.88
2023-02-08T06:40:23.258Z,103446.72
2023-02-08T06:42:52.900Z,103423.69
2023-02-08T06:45:22.514Z,103415.66
2023-02-08T06:47:52.156Z,103440.66
2023-02-08T06:50:24.075Z,103446.19
2023-02-08T06:52:56.377Z,103429.22
2023-02-08T06:55:25.947Z,103411.53
2023-02-08T06:57:56.341Z,103438.16
2023-02-08T07:00:26.172Z,103437.06
2023-02-08T07:02:55.796Z,103427.81
2023-02-08T07:05:25.388Z,103434.94
2023-02-08T07:07:57.583Z,103442.06
2023-02-08T07:10:27.183Z,103429.78
2023-02-08T07:12:56.845Z,103404.78
2023-02-08T07:15:26.696Z,103441.34
2023-02-08T07:17:56.328Z,103407.47
2023-02-08T07:20:26.993Z,103433.88
2023-02-08T07:23:00.499Z,103439.56
2023-02-08T07:25:30.102Z,103442.41
2023-02-08T07:27:59.753Z,103455.81
2023-02-08T07:30:29.477Z,103455.81
2023-02-08T07:32:59.161Z,103455.47
2023-02-08T07:35:28.882Z,103445.09
2023-02-08T07:38:01.115Z,103441.88
2023-02-08T07:40:32.135Z,103447.06
2023-02-08T07:43:01.754Z,103388.91
2023-02-08T07:45:41.804Z,103450.28
2023-02-08T07:48:11.566Z,103413.53
2023-02-08T07:50:41.473Z,103323.22
2023-02-08T07:53:13.833Z,103430.31
2023-02-08T07:55:43.470Z,103413.50
2023-02-08T07:58:13.127Z,103436.00
2023-02-08T08:00:42.911Z,103432.59
2023-02-08T08:03:12.636Z,103431.47
2023-02-08T08:05:43.611Z,103424.47
2023-02-08T08:08:15.946Z,103422.47
2023-02-08T08:10:46.383Z,103415.88
2023-02-08T08:13:16.722Z,103413.69
2023-02-08T08:15:46.399Z,103389.06
2023-02-08T08:18:16.046Z,103401.56
2023-02-08T08:20:45.639Z,103426.31
2023-02-08T08:23:19.626Z,103424.81
2023-02-08T08:25:49.981Z,103418.91
2023-02-08T08:28:19.962Z,103407.47
2023-02-08T08:30:50.220Z,103405.47
2023-02-08T08:33:19.850Z,103408.84
2023-02-08T08:35:49.498Z,103375.63
2023-02-08T08:38:21.682Z,103405.53
2023-02-08T08:40:51.285Z,103395.50
2023-02-08T08:43:20.916Z,103395.13
2023-02-08T08:45:52.892Z,103391.72
2023-02-08T08:48:22.669Z,103390.16
2023-02-08T08:50:52.249Z,103385.44
2023-02-08T08:53:25.694Z,103396.50
2023-02-08T08:55:55.551Z,103391.69
2023-02-08T08:58:25.263Z,103375.84
2023-02-08T09:00:55.384Z,103402.56
2023-02-08T09:03:25.124Z,103385.44
2023-02-08T09:05:55.346Z,103372.53
2023-02-08T09:08:27.640Z,103398.34
2023-02-08T09:10:57.343Z,103408.81
2023-02-08T09:13:26.949Z,103391.25
2023-02-08T09:15:56.576Z,103374.63
2023-02-08T09:18:26.262Z,103400.16
2023-02-08T09:20:55.918Z,103375.13
2023-02-08T09:23:28.378Z,103358.69
2023-02-08T09:25:57.999Z,103339.13
2023-02-08T09:28:27.636Z,103383.47
2023-02-08T09:30:57.405Z,103357.16
2023-02-08T09:33:27.369Z,103377.00
2023-02-08T09:35:57.668Z,103374.72
2023-02-08T09:38:32.455Z,103369.19
2023-02-08T09:41:14.565Z,103366.88
2023-02-08T09:43:52.807Z,103388.75
2023-02-08T09:46:25.542Z,103342.69
2023-02-08T09:49:00.738Z,103378.81
2023-02-08T09:51:37.600Z,103384.66
2023-02-08T09:54:20.660Z,103377.88
2023-02-08T09:56:51.807Z,103333.09
2023-02-08T09:59:27.874Z,103371.47
2023-02-08T10:02:06.676Z,103372.09
2023-02-08T10:04:46.135Z,103274.91
2023-02-08T10:07:17.041Z,103350.06
2023-02-08T10:09:49.429Z,103339.69
2023-02-08T10:12:28.770Z,103359.25
2023-02-08T10:15:08.619Z,103372.44
2023-02-08T10:18:08.598Z,103384.03
2023-02-08T10:20:53.301Z,103285.38
2023-02-08T10:23:36.257Z,103393.50
2023-02-08T10:26:23.777Z,103371.56
2023-02-08T10:29:06.485Z,103358.66
2023-02-08T10:31:53.786Z,103362.34
2023-02-08T10:34:33.666Z,103273.66
2023-02-08T10:37:12.763Z,103377.41
2023-02-08T10:39:46.936Z,103375.63
2023-02-08T10:42:22.481Z,103381.84
2023-02-08T10:45:22.630Z,103372.75
2023-02-08T11:06:32.792Z,103129.09
2023-02-08T11:09:02.457Z,103309.16
2023-02-08T11:11:37.629Z,103349.03
2023-02-08T11:14:12.492Z,103352.53
2023-02-08T11:16:43.429Z,103344.63
2023-02-08T11:19:25.184Z,103334.13
2023-02-08T11:21:59.077Z,103298.25
2023-02-08T11:24:34.376Z,103277.66
2023-02-08T11:27:04.349Z,103348.63
2023-02-08T11:29:34.020Z,103302.69
2023-02-08T11:32:05.476Z,103327.34
2023-02-08T11:34:38.568Z,103304.06
2023-02-08T11:37:18.277Z,103267.09
2023-02-08T11:39:54.370Z,103320.84
2023-02-08T11:42:27.763Z,103333.38
2023-02-08T11:44:59.878Z,103307.44
2023-02-08T11:47:33.990Z,103290.25
2023-02-08T11:50:05.728Z,103324.06
2023-02-08T11:52:41.039Z,103327.13
2023-02-08T11:55:26.523Z,103306.59
2023-02-08T11:57:58.327Z,103325.09
2023-02-08T12:00:31.131Z,103315.25
2023-02-08T12:03:04.704Z,103319.06
2023-02-08T12:05:43.433Z,103259.66
2023-02-08T12:08:21.777Z,103319.72
2023-02-08T12:11:10.342Z,103301.84
2023-02-08T12:14:15.962Z,103296.25
2023-02-08T12:17:10.184Z,103259.69
2023-02-08T12:20:04.795Z,103297.97
2023-02-08T12:22:35.866Z,103282.28
2023-02-08T12:25:25.165Z,103281.53
2023-02-08T12:28:04.658Z,103244.81
2023-02-08T12:30:37.736Z,103241.78
2023-02-08T12:33:30.453Z,103261.78
2023-02-08T12:36:29.856Z,103277.50
2023-02-08T12:39:41.288Z,103286.09
2023-02-08T12:42:36.258Z,103187.63
2023-02-08T12:45:18.823Z,103230.38
2023-02-08T12:48:04.630Z,103264.53
2023-02-08T12:50:43.680Z,103257.25
2023-02-08T12:53:22.478Z,103230.50
2023-02-08T12:55:55.339Z,103244.19
2023-02-08T12:58:32.295Z,103181.22
2023-02-08T13:01:10.823Z,103222.22
2023-02-08T13:03:48.362Z,103222.19
2023-02-08T13:06:21.488Z,103231.44
2023-02-08T13:08:56.710Z,103230.53
2023-02-08T13:11:34.776Z,103201.31
2023-02-08T13:14:14.635Z,103219.56
2023-02-08T13:16:48.934Z,103220.03
2023-02-08T13:19:29.239Z,103201.75
2023-02-08T13:22:00.257Z,103200.66
2023-02-08T13:24:35.823Z,103192.28
2023-02-08T13:27:08.124Z,103185.91
2023-02-08T13:29:41.041Z,103098.69
2023-02-08T13:32:17.727Z,103188.34
2023-02-08T13:34:51.393Z,103183.63
2023-02-08T13:37:26.069Z,103122.28
2023-02-08T13:40:03.231Z,103175.47
2023-02-08T13:42:39.722Z,103169.09
2023-02-08T13:45:25.272Z,103147.53
2023-02-08T13:48:01.057Z,103163.22
2023-02-08T13:50:48.852Z,103165.53
2023-02-08T13:53:19.845Z,103168.16
2023-02-08T13:56:08.486Z,103153.34
2023-02-08T13:59:01.319Z,103145.53
2023-02-08T14:01:36.122Z,103126.16
2023-02-08T14:04:32.675Z,103161.19
2023-02-08T14:07:08.357Z,103159.72
2023-02-08T14:10:00.688Z,103160.97
2023-02-08T14:12:37.780Z,103135.84
2023-02-08T14:15:10.090Z,103148.47
2023-02-08T14:17:46.126Z,103140.63
2023-02-08T14:20:23.940Z,103133.78
2023-02-08T14:22:56.424Z,103127.91
2023-02-08T14:25:28.880Z,103114.25
2023-02-08T14:28:00.271Z,103139.28
2023-02-08T14:30:32.996Z,103110.41
2023-02-08T14:33:21.051Z,103127.31
2023-02-08T14:35:56.566Z,103123.66
2023-02-08T14:38:55.429Z,103120.06
2023-02-08T14:42:00.213Z,103104.63
2023-02-08T14:45:04.291Z,103116.22
2023-02-08T14:48:08.206Z,103106.69
2023-02-08T14:50:53.403Z,103108.00
2023-02-08T14:53:29.826Z,103090.69
2023-02-08T14:56:05.928Z,103094.25
2023-02-08T14:58:39.357Z,103053.63
2023-02-08T15:01:14.960Z,103089.25
2023-02-08T15:03:45.452Z,103063.06
2023-02-08T15:06:40.145Z,103080.97
2023-02-08T15:09:18.964Z,103075.69
2023-02-08T15:11:58.862Z,103091.00
2023-02-08T15:14:29.106Z,103073.75
2023-02-08T15:16:59.711Z,103072.78
2023-02-08T15:19:34.153Z,103089.66
2023-02-08T15:22:22.446Z,103089.94
2023-02-08T15:24:52.939Z,103092.25
2023-02-08T15:27:25.675Z,103085.03
2023-02-08T15:29:55.769Z,103084.44
2023-02-08T15:32:28.561Z,103076.97
2023-02-08T15:35:01.176Z,103079.31
2023-02-08T15:37:36.069Z,103086.59
2023-02-08T15:40:06.258Z,103090.59
2023-02-08T15:42:37.012Z,103073.28
2023-02-08T15:45:07.264Z,103078.22
2023-02-08T15:47:39.952Z,103083.00
2023-02-08T15:50:19.669Z,103021.84
2023-02-08T15:52:55.960Z,103053.19
2023-02-08T15:55:26.437Z,103058.00
2023-02-08T15:58:02.040Z,103058.94
2023-02-08T16:00:34.901Z,102998.91
2023-02-08T16:03:08.701Z,103002.59
2023-02-08T16:05:39.204Z,103067.44
2023-02-08T16:08:23.452Z,103008.88
2023-02-08T16:10:56.501Z,103070.19
2023-02-08T16:13:28.756Z,103073.78
2023-02-08T16:16:08.479Z,103060.41
2023-02-08T16:18:46.096Z,103062.66
2023-02-08T16:21:32.039Z,103056.78
2023-02-08T16:24:09.098Z,103057.81
2023-02-08T16:26:43.998Z,103051.75
2023-02-08T16:29:21.139Z,103035.22
2023-02-08T16:32:01.009Z,103041.16
2023-02-08T16:34:32.873Z,103025.88
2023-02-08T16:37:04.093Z,103036.75
2023-02-08T16:39:53.669Z,103033.19
2023-02-08T16:42:29.677Z,103020.84
2023-02-08T16:45:19.346Z,103019.94
2023-02-08T16:47:52.600Z,103019.97
2023-02-08T16:50:24.862Z,103006.81
2023-02-08T16:52:57.665Z,103024.72
2023-02-08T16:55:33.813Z,103029.53
2023-02-08T16:58:03.420Z,102992.09
2023-02-08T17:00:35.419Z,102977.84
2023-02-08T17:03:05.384Z,102985.03
2023-02-08T17:05:39.412Z,102998.06
2023-02-08T17:08:11.479Z,102956.94
2023-02-08T17:10:43.902Z,102988.53
2023-02-08T17:13:20.394Z,102957.16
2023-02-08T17:15:52.281Z,102980.69
2023-02-08T17:18:22.698Z,103006.22
2023-02-08T17:20:57.846Z,102995.06
2023-02-08T17:23:27.648Z,102991.47
2023-02-08T17:25:59.852Z,102965.94
2023-02-08T17:28:31.582Z,102986.56
2023-02-08T17:31:01.757Z,102998.16
2023-02-08T17:33:36.394Z,102977.06
2023-02-08T17:36:06.156Z,102965.53
2023-02-08T17:38:39.060Z,102989.28
2023-02-08T17:41:16.095Z,102940.72
2023-02-08T17:43:45.834Z,102979.06
2023-02-08T17:46:18.834Z,102967.97
2023-02-08T17:48:48.653Z,102961.97
2023-02-08T17:51:20.305Z,102958.69
2023-02-08T17:53:50.336Z,102948.16
2023-02-08T17:56:24.927Z,102955.31
2023-02-08T17:58:55.602Z,102948.69
2023-02-08T18:01:27.474Z,102917.59
2023-02-08T18:03:57.284Z,102912.41
2023-02-08T18:06:27.395Z,102929.03
2023-02-08T18:08:57.897Z,102928.53
2023-02-08T18:11:30.094Z,102920.72
2023-02-08T18:13:59.715Z,102915.94
2023-02-08T18:16:30.917Z,102898.25
2023-02-08T18:19:01.974Z,102913.69
2023-02-08T18:21:33.232Z,102888.56
2023-02-08T18:24:04.794Z,102909.13
2023-02-08T18:26:37.556Z,102882.13
2023-02-08T18:29:07.520Z,102908.63
2023-02-08T18:31:37.702Z,102908.13
2023-02-08T18:34:07.413Z,102913.69
2023-02-08T18:36:37.034Z,102912.66
2023-02-08T18:39:07.036Z,102899.03
2023-02-08T18:41:39.288Z,102919.13
2023-02-08T18:44:09.071Z,102915.94
2023-02-08T18:46:38.947Z,102916.69
2023-02-08T18:49:08.734Z,102903.03
2023-02-08T18:51:38.351Z,102912.84
2023-02-08T18:54:08.069Z,102917.63
2023-02-08T18:56:40.304Z,102874.94
2023-02-08T18:59:09.965Z,102901.72
2023-02-08T19:01:40.333Z,102876.94
2023-02-08T19:04:10.041Z,102901.44
2023-02-08T19:06:40.087Z,102894.97
2023-02-08T19:09:10.366Z,102828.78
2023-02-08T19:11:44.243Z,102863.13
2023-02-08T19:14:16.213Z,102868.78
2023-02-08T19:16:48.244Z,102891.59
2023-02-08T19:19:17.877Z,102858.25
2023-02-08T19:21:47.516Z,102857.44
2023-02-08T19:24:19.576Z,102887.06
2023-02-08T19:26:51.810Z,102852.66
2023-02-08T19:29:23.256Z,102879.44
2023-02-08T19:31:53.325Z,102891.63
2023-02-08T19:34:23.075Z,102863.75
2023-02-08T19:36:55.179Z,102862.69
2023-02-08T19:39:27.166Z,102899.78
2023-02-08T19:42:00.441Z,102902.50
2023-02-08T19:44:30.925Z,102894.06
2023-02-08T19:47:01.242Z,102885.00
2023-02-08T19:49:30.969Z,102884.06
2023-02-08T19:52:00.800Z,102858.66
2023-02-08T19:54:30.414Z,102895.53
2023-02-08T19:57:02.649Z,102886.50
2023-02-08T19:59:35.206Z,102878.13
2023-02-08T20:02:06.325Z,102859.91
2023-02-08T20:04:36.062Z,102879.97
2023-02-08T20:07:06.890Z,102817.09
2023-02-08T20:09:36.956Z,102881.66
2023-02-08T20:12:09.773Z,102894.38
2023-02-08T20:14:39.795Z,102888.94
2023-02-08T20:17:09.499Z,102903.25
2023-02-08T20:19:39.611Z,102901.06
2023-02-08T20:22:09.388Z,102879.75
2023-02-08T20:24:39.050Z,102881.06
2023-02-08T20:27:11.253Z,102903.28
2023-02-08T20:29:40.877Z,102893.13
2023-02-08T20:32:10.692Z,102900.50
2023-02-08T20:34:47.326Z,102890.88
2023-02-08T20:37:23.644Z,102906.88
2023-02-08T20:39:53.262Z,102901.41
2023-02-08T20:42:25.576Z,102861.44
2023-02-08T20:44:55.413Z,102910.47
2023-02-08T20:47:25.155Z,102880.69
2023-02-08T20:49:54.803Z,102918.81
2023-02-08T20:52:24.438Z,102893.72
2023-02-08T20:54:54.048Z,102887.84
2023-02-08T20:57:26.277Z,102866.59
2023-02-08T20:59:56.045Z,102869.22
2023-02-08T21:02:26.414Z,102899.06
2023-02-08T21:04:56.117Z,102898.47
2023-02-08T21:07:25.895Z,102893.13
2023-02-08T21:09:55.597Z,102896.97
2023-02-08T21:12:28.269Z,102894.00
2023-02-08T21:14:57.959Z,102876.91
2023-02-08T21:17:27.681Z,102892.84
2023-02-08T21:19:57.387Z,102900.69
2023-02-08T21:22:27.131Z,102906.75
2023-02-08T21:24:57.010Z,102872.34
2023-02-08T21:27:29.485Z,102819.94
2023-02-08T21:30:02.152Z,102886.38
2023-02-08T21:32:32.087Z,102890.50
2023-02-08T21:35:01.885Z,102855.06
2023-02-08T21:37:31.630Z,102875.00
2023-02-08T21:40:01.490Z,102870.56
2023-02-08T21:42:33.801Z,102873.66
2023-02-08T21:45:03.487Z,102886.94
2023-02-08T21:47:33.196Z,102869.09
2023-02-08T21:50:15.388Z,102869.53
2023-02-08T21:52:57.573Z,102878.38
2023-02-08T21:55:27.414Z,102878.84
2023-02-08T21:57:59.646Z,102882.38
2023-02-08T22:00:29.368Z,102825.84
2023-02-08T22:02:59.136Z,102851.97
2023-02-08T22:05:28.868Z,102854.47
2023-02-08T22:08:00.313Z,102850.63
2023-02-08T22:10:31.763Z,102838.38
2023-02-08T22:13:04.118Z,102787.47
2023-02-08T22:15:35.045Z,102780.09
2023-02-08T22:18:06.414Z,102868.97
2023-02-08T22:20:36.248Z,102834.84
2023-02-08T22:23:06.136Z,102827.03
2023-02-08T22:25:35.805Z,102772.72
2023-02-08T22:28:08.533Z,102828.78
2023-02-08T22:30:38.247Z,102805.91
2023-02-08T22:33:10.636Z,102845.19
2023-02-08T22:35:42.022Z,102835.00
2023-02-08T22:38:11.638Z,102773.16
2023-02-08T22:40:44.561Z,102827.75
2023-02-08T22:43:17.095Z,102815.81
2023-02-08T22:45:48.276Z,102826.00
2023-02-08T22:48:17.886Z,102792.78
2023-02-08T22:50:47.675Z,102817.13
2023-02-08T22:53:19.777Z,102825.25
2023-02-08T22:55:52.679Z,102832.34
2023-02-08T22:58:25.889Z,102823.78
2023-02-08T23:00:55.621Z,102791.00
2023-02-08T23:03:25.539Z,102801.94
2023-02-08T23:05:55.969Z,102800.16
2023-02-08T23:08:26.515Z,102825.41
2023-02-08T23:11:01.769Z,102826.41
2023-02-08T23:13:37.242Z,102819.06
2023-02-08T23:16:10.481Z,102787.34
2023-02-08T23:18:40.263Z,102789.22
2023-02-08T23:21:10.764Z,102801.50
2023-02-08T23:23:40.418Z,102806.38
2023-02-08T23:26:11.292Z,102804.88
2023-02-08T23:28:43.613Z,102786.00
2023-02-08T23:31:15.134Z,102801.66
2023-02-08T23:33:45.040Z,102782.03
2023-02-08T23:36:17.086Z,102772.69
2023-02-08T23:38:47.452Z,102773.28
2023-02-08T23:41:20.088Z,102722.56
2023-02-08T23:43:53.820Z,102774.03
2023-02-08T23:46:26.335Z,102753.81
2023-02-08T23:48:56.596Z,102757.50
2023-02-08T23:51:28.014Z,102762.66
2023-02-08T23:53:58.018Z,102759.75
2023-02-08T23:56:29.071Z,102766.19
2023-02-08T23:59:05.348Z,102741.72
